METAR Data
IDs: Format: Raw Decoded Include TAF

Data at: 2145 UTC 02 Aug 2021

LIVC 022055Z AUTO 24017KT //// 10/M03 Q1023